Time;durP1;ratioP1;P1;durP2;ratioP2;P2;SDS_P1;SDS_P2;PMS_P1;PMS_P2;Temp;Humidity;BMP_temperature;BMP_pressure;BME280_temperature;BME280_humidity;BME280_pressure;Samples;Min_cycle;Max_cycle;Signal;HPM_P1;HPM_P2
2022/12/02 00:02:03;;;;;;;89.23;32.47;;;1.00;99.90;;;;;;5018369;28;20250;-90
2022/12/02 00:04:29;;;;;;;94.80;33.30;;;1.00;99.90;;;;;;5018321;28;20199;-89
2022/12/02 00:06:57;;;;;;;95.17;33.77;;;1.00;99.90;;;;;;5017483;28;20190;-91
2022/12/02 00:09:25;;;;;;;96.23;32.27;;;1.00;99.90;;;;;;5018005;28;20519;-90
2022/12/02 00:11:51;;;;;;;90.77;33.87;;;1.00;99.90;;;;;;5017835;28;20596;-89
2022/12/02 00:14:24;;;;;;;94.33;32.90;;;1.00;99.90;;;;;;5034192;28;20175;-91
2022/12/02 00:16:50;;;;;;;86.47;32.83;;;1.00;99.90;;;;;;4998373;28;20183;-90
2022/12/02 00:19:17;;;;;;;91.63;33.63;;;1.00;99.90;;;;;;4998097;28;20191;-89
2022/12/02 00:21:42;;;;;;;96.20;34.47;;;1.00;99.90;;;;;;4997873;28;20213;-89
2022/12/02 00:24:08;;;;;;;89.23;30.90;;;1.00;99.90;;;;;;4998250;28;20274;-89
2022/12/02 00:26:35;;;;;;;87.47;33.43;;;1.00;99.90;;;;;;4998204;28;20627;-90
2022/12/02 00:29:01;;;;;;;96.57;33.47;;;1.00;99.90;;;;;;5012183;28;20202;-89
2022/12/02 00:31:27;;;;;;;84.27;31.43;;;1.10;99.90;;;;;;5017703;28;20185;-89
2022/12/02 00:33:55;;;;;;;82.13;31.83;;;1.10;99.90;;;;;;5017389;28;20288;-91
2022/12/02 00:36:24;;;;;;;86.33;32.03;;;1.10;99.90;;;;;;5016878;28;20232;-89
2022/12/02 00:38:49;;;;;;;82.03;31.13;;;1.00;99.90;;;;;;5017487;28;20210;-90
2022/12/02 00:41:15;;;;;;;85.10;32.57;;;1.10;99.90;;;;;;5017324;28;20202;-91
2022/12/02 00:46:37;;;;;;;82.30;30.67;;;1.10;99.90;;;;;;4961619;28;20557;-89
2022/12/02 00:49:09;;;;;;;86.23;32.73;;;1.10;99.90;;;;;;5016947;28;20283;-89
2022/12/02 00:51:36;;;;;;;79.87;30.57;;;1.10;99.90;;;;;;5016908;28;20173;-89
2022/12/02 00:54:02;;;;;;;83.17;32.37;;;1.00;99.90;;;;;;5016983;28;20260;-90
2022/12/02 00:56:28;;;;;;;84.77;31.40;;;1.00;99.90;;;;;;5016856;28;20171;-90
2022/12/02 00:58:54;;;;;;;84.67;32.50;;;1.10;99.90;;;;;;5016686;28;20198;-90
2022/12/02 01:01:20;;;;;;;82.03;30.83;;;1.00;99.90;;;;;;5016959;28;20202;-91
2022/12/02 01:03:46;;;;;;;86.17;31.93;;;1.10;99.90;;;;;;5017082;28;20176;-91
2022/12/02 01:06:13;;;;;;;91.43;33.93;;;1.10;99.90;;;;;;5016772;28;20171;-90
2022/12/02 01:08:39;;;;;;;86.07;32.73;;;1.10;99.90;;;;;;5016464;28;20199;-90
2022/12/02 01:11:05;;;;;;;83.33;31.07;;;1.10;99.90;;;;;;5016925;28;20170;-90
2022/12/02 01:13:31;;;;;;;91.73;32.37;;;1.00;99.90;;;;;;5016701;28;20198;-89
2022/12/02 01:15:57;;;;;;;85.30;31.80;;;1.00;99.90;;;;;;5016910;28;20686;-89
2022/12/02 01:18:23;;;;;;;82.53;32.27;;;1.10;99.90;;;;;;5016416;28;20209;-88
2022/12/02 01:20:49;;;;;;;86.70;32.37;;;1.10;99.90;;;;;;5016558;28;20681;-89
2022/12/02 01:23:16;;;;;;;74.23;31.07;;;1.10;99.90;;;;;;5016757;28;20170;-89
2022/12/02 01:25:42;;;;;;;80.27;30.87;;;1.10;99.90;;;;;;5007606;28;20266;-88
2022/12/02 01:28:08;;;;;;;86.80;31.93;;;1.10;99.90;;;;;;5016350;28;20290;-89
2022/12/02 01:30:33;;;;;;;84.50;31.53;;;1.00;99.90;;;;;;5016363;28;20194;-90
2022/12/02 01:32:59;;;;;;;82.37;31.73;;;1.10;99.90;;;;;;5016313;28;20590;-90
2022/12/02 01:35:25;;;;;;;92.13;32.00;;;1.10;99.90;;;;;;5016582;28;20269;-88
2022/12/02 01:37:51;;;;;;;88.57;32.20;;;1.00;99.90;;;;;;5016391;28;20286;-91
2022/12/02 01:40:18;;;;;;;72.93;30.73;;;1.00;99.90;;;;;;5016276;28;20187;-91
2022/12/02 01:42:44;;;;;;;79.67;30.80;;;1.10;99.90;;;;;;5017073;28;20170;-89
2022/12/02 01:45:12;;;;;;;73.47;29.23;;;1.10;99.90;;;;;;5016824;28;20177;-89
2022/12/02 01:47:39;;;;;;;70.20;28.60;;;1.10;99.90;;;;;;5015782;28;20206;-88
2022/12/02 01:50:07;;;;;;;74.53;30.50;;;1.10;99.90;;;;;;5016605;28;20175;-89
2022/12/02 01:52:34;;;;;;;71.77;28.93;;;1.10;99.90;;;;;;5012463;28;20230;-89
2022/12/02 01:55:00;;;;;;;67.47;29.37;;;1.10;99.90;;;;;;5016027;28;20184;-90
2022/12/02 01:57:28;;;;;;;71.90;29.73;;;1.00;99.90;;;;;;5015942;28;20463;-90
2022/12/02 01:59:54;;;;;;;66.43;28.13;;;1.00;99.90;;;;;;5016039;28;20760;-89
2022/12/02 02:02:28;;;;;;;69.33;28.70;;;1.00;99.90;;;;;;5015904;28;20304;-91
2022/12/02 02:04:57;;;;;;;63.70;27.93;;;1.00;99.90;;;;;;5373531;23;20325;-87
2022/12/02 02:07:23;;;;;;;66.73;29.67;;;1.00;99.90;;;;;;5027212;28;20208;-83
2022/12/02 02:09:49;;;;;;;66.50;29.17;;;1.00;99.90;;;;;;5070553;28;20607;-85
2022/12/02 02:12:15;;;;;;;77.33;29.73;;;1.00;99.90;;;;;;5074384;28;20691;-87
2022/12/02 02:14:41;;;;;;;68.73;28.87;;;0.90;99.90;;;;;;5056586;28;20259;-86
2022/12/02 02:17:07;;;;;;;65.63;28.77;;;0.90;99.90;;;;;;5074427;28;20178;-85
2022/12/02 02:19:33;;;;;;;76.27;30.07;;;0.90;99.90;;;;;;5074423;28;20237;-87
2022/12/02 02:22:03;;;;;;;69.67;28.30;;;0.90;99.90;;;;;;5074550;28;20607;-86
2022/12/02 02:24:28;;;;;;;64.40;28.60;;;0.90;99.90;;;;;;5074597;28;20181;-87
2022/12/02 02:26:54;;;;;;;68.63;28.60;;;0.90;99.90;;;;;;5074225;28;20669;-88
2022/12/02 02:29:20;;;;;;;65.40;30.30;;;1.00;99.90;;;;;;5073721;28;20215;-85
2022/12/02 02:31:46;;;;;;;71.33;29.03;;;0.90;99.90;;;;;;5094583;28;20165;-84
2022/12/02 02:34:11;;;;;;;61.83;28.70;;;1.00;99.90;;;;;;5076546;28;20203;-85
2022/12/02 02:36:37;;;;;;;70.50;29.93;;;1.00;99.90;;;;;;5076633;28;20199;-86
2022/12/02 02:39:03;;;;;;;60.33;27.47;;;1.00;99.90;;;;;;5076885;28;20191;-86
2022/12/02 02:41:29;;;;;;;71.03;28.30;;;1.00;99.90;;;;;;5076780;28;20219;-85
2022/12/02 02:43:55;;;;;;;65.07;29.20;;;0.90;99.90;;;;;;5094797;28;20184;-87
2022/12/02 02:46:22;;;;;;;64.10;28.07;;;1.00;99.90;;;;;;5094918;28;20172;-87
2022/12/02 03:02:16;;;;;;;63.23;27.50;;;1.00;99.90;;;;;;5054422;28;20212;-85
2022/12/02 03:04:43;;;;;;;63.93;27.03;;;1.00;99.90;;;;;;5053896;28;20166;-85
2022/12/02 03:07:09;;;;;;;67.13;27.83;;;0.90;99.90;;;;;;5054600;28;20260;-87
2022/12/02 03:09:35;;;;;;;67.77;28.87;;;0.90;99.90;;;;;;5054265;28;20166;-87
2022/12/02 03:12:01;;;;;;;65.07;27.33;;;0.90;99.90;;;;;;5054142;28;20174;-87
2022/12/02 03:14:28;;;;;;;62.70;27.60;;;0.90;99.90;;;;;;5036144;28;20196;-87
2022/12/02 03:16:55;;;;;;;62.80;28.47;;;0.90;99.90;;;;;;5053927;28;20183;-86
2022/12/02 03:19:21;;;;;;;69.27;29.83;;;0.90;99.90;;;;;;5036100;28;20604;-84
2022/12/02 03:21:47;;;;;;;64.40;27.77;;;0.90;99.90;;;;;;5036112;28;20267;-84
2022/12/02 03:24:13;;;;;;;63.30;27.00;;;0.90;99.90;;;;;;5036284;28;20181;-86
2022/12/02 03:26:40;;;;;;;58.43;26.37;;;0.90;99.90;;;;;;5058969;28;20170;-85
2022/12/02 03:29:06;;;;;;;63.40;26.23;;;0.90;99.90;;;;;;5094179;28;20240;-85
2022/12/02 03:31:34;;;;;;;60.83;27.90;;;0.90;99.90;;;;;;5076134;28;20176;-86
2022/12/02 03:33:59;;;;;;;60.37;26.93;;;1.00;99.90;;;;;;5093912;28;20222;-85
2022/12/02 03:36:26;;;;;;;65.17;28.50;;;0.90;99.90;;;;;;5076104;28;20176;-85
2022/12/02 03:38:52;;;;;;;69.47;30.00;;;1.00;99.90;;;;;;5094032;28;20172;-85
2022/12/02 03:41:19;;;;;;;55.33;25.37;;;0.90;99.90;;;;;;5075817;28;20318;-85
2022/12/02 03:43:45;;;;;;;58.97;27.00;;;0.90;99.90;;;;;;5075776;28;20226;-84
2022/12/02 03:46:11;;;;;;;63.67;27.97;;;0.90;99.90;;;;;;5075961;28;20183;-86
2022/12/02 03:48:38;;;;;;;62.20;26.60;;;0.90;99.90;;;;;;5093609;28;20183;-83
2022/12/02 03:51:06;;;;;;;64.90;27.97;;;0.90;99.90;;;;;;5076198;28;20615;-83
2022/12/02 03:53:33;;;;;;;55.60;26.77;;;1.00;99.90;;;;;;5094040;28;20180;-84
2022/12/02 03:56:03;;;;;;;60.00;26.87;;;1.00;99.90;;;;;;5093857;28;20202;-86
2022/12/02 03:58:43;;;;;;;56.80;26.50;;;1.00;99.90;;;;;;5093929;28;20218;-87
2022/12/02 04:01:09;;;;;;;64.37;26.50;;;1.00;99.90;;;;;;5075794;28;20575;-85
2022/12/02 04:03:35;;;;;;;51.40;24.67;;;0.90;99.90;;;;;;5093423;28;20211;-86
2022/12/02 04:06:00;;;;;;;58.63;26.57;;;1.00;99.90;;;;;;5093694;28;20255;-84
2022/12/02 04:08:26;;;;;;;56.13;25.73;;;1.00;99.90;;;;;;5093800;28;20172;-84
2022/12/02 04:10:52;;;;;;;55.43;26.33;;;1.00;99.90;;;;;;5095695;28;20168;-86
2022/12/02 04:13:18;;;;;;;58.77;26.73;;;1.00;99.90;;;;;;5089945;28;20630;-86
2022/12/02 04:15:44;;;;;;;56.90;25.70;;;1.00;99.90;;;;;;5077070;28;20216;-83
2022/12/02 04:18:09;;;;;;;55.70;26.83;;;1.00;99.90;;;;;;5077021;28;20606;-84
2022/12/02 04:20:35;;;;;;;63.43;25.77;;;1.00;99.90;;;;;;5077132;28;20189;-87
2022/12/02 04:23:01;;;;;;;53.93;25.50;;;1.00;99.90;;;;;;5058844;28;20239;-88
2022/12/02 04:25:27;;;;;;;53.27;25.53;;;1.00;99.90;;;;;;5077173;28;20264;-87
2022/12/02 04:27:53;;;;;;;47.90;24.93;;;1.00;99.90;;;;;;5059277;28;20194;-87
2022/12/02 04:30:19;;;;;;;54.60;25.33;;;1.00;99.90;;;;;;5059241;28;20173;-87
2022/12/02 04:32:45;;;;;;;52.87;25.00;;;0.90;99.90;;;;;;5083247;28;20192;-87
2022/12/02 04:35:10;;;;;;;54.53;25.07;;;0.90;99.90;;;;;;5079387;28;20180;-87
2022/12/02 04:37:38;;;;;;;57.43;25.47;;;0.90;99.90;;;;;;5097398;28;20176;-87
2022/12/02 04:40:05;;;;;;;54.57;25.20;;;0.90;99.90;;;;;;5097491;28;20543;-87
2022/12/02 04:42:31;;;;;;;54.03;25.93;;;1.00;99.90;;;;;;5097108;28;20211;-85
2022/12/02 04:44:56;;;;;;;53.93;25.37;;;0.90;99.90;;;;;;5078797;28;20172;-86
2022/12/02 04:47:23;;;;;;;53.77;24.87;;;1.00;99.90;;;;;;5078596;28;20614;-85
2022/12/02 04:49:49;;;;;;;53.00;24.17;;;1.00;99.90;;;;;;5079140;28;20173;-86
2022/12/02 04:52:15;;;;;;;54.07;24.77;;;0.90;99.90;;;;;;5078717;28;20181;-85
2022/12/02 04:54:41;;;;;;;49.90;24.23;;;0.90;99.90;;;;;;5096646;28;20173;-85
2022/12/02 04:57:07;;;;;;;54.83;25.03;;;0.90;99.90;;;;;;5078580;28;20226;-87
2022/12/02 04:59:33;;;;;;;51.73;24.13;;;0.90;99.90;;;;;;5078266;28;20190;-86
2022/12/02 05:01:59;;;;;;;52.00;25.20;;;0.90;99.90;;;;;;5096086;28;20223;-86
2022/12/02 05:04:24;;;;;;;51.03;24.33;;;0.90;99.90;;;;;;5078175;28;20181;-85
2022/12/02 05:06:50;;;;;;;49.90;24.50;;;0.90;99.90;;;;;;5074738;28;20730;-84
2022/12/02 05:09:16;;;;;;;46.77;22.63;;;0.80;99.90;;;;;;5076104;28;20181;-83
2022/12/02 05:11:42;;;;;;;52.67;24.47;;;0.80;99.90;;;;;;5074617;28;20184;-84
2022/12/02 05:14:07;;;;;;;55.27;24.10;;;0.80;99.90;;;;;;5075556;28;20604;-85
2022/12/02 05:16:33;;;;;;;50.63;24.00;;;0.80;99.90;;;;;;5075808;28;20273;-84
2022/12/02 05:18:59;;;;;;;50.30;23.83;;;0.90;99.90;;;;;;5074312;28;20184;-85
2022/12/02 05:21:25;;;;;;;52.23;24.33;;;0.80;99.90;;;;;;5075429;28;20314;-85
2022/12/02 05:23:50;;;;;;;51.43;23.83;;;0.80;99.90;;;;;;5075619;28;20598;-85
2022/12/02 05:26:16;;;;;;;51.63;23.37;;;0.80;99.90;;;;;;5075433;28;20177;-84
2022/12/02 05:28:42;;;;;;;57.30;25.80;;;0.80;99.90;;;;;;5075087;28;20529;-83
2022/12/02 05:31:08;;;;;;;53.17;23.87;;;0.90;99.90;;;;;;5075490;28;20626;-83
2022/12/02 05:33:33;;;;;;;49.37;24.60;;;0.80;99.90;;;;;;5075374;28;20571;-84
2022/12/02 05:35:59;;;;;;;45.30;23.47;;;0.80;99.90;;;;;;5073940;28;20185;-83
2022/12/02 05:38:27;;;;;;;51.50;23.87;;;0.80;99.90;;;;;;5073734;28;20612;-84
2022/12/02 05:40:55;;;;;;;50.97;24.67;;;0.80;99.90;;;;;;5075047;28;20192;-84
2022/12/02 05:43:23;;;;;;;52.70;24.73;;;0.80;99.90;;;;;;5090698;28;20204;-84
2022/12/02 05:45:49;;;;;;;51.10;24.03;;;0.80;99.90;;;;;;5074551;28;20663;-83
2022/12/02 05:48:18;;;;;;;48.70;23.53;;;0.80;99.90;;;;;;5074931;28;20168;-83
2022/12/02 05:50:45;;;;;;;52.23;24.77;;;0.80;99.90;;;;;;5074807;28;20609;-84
2022/12/02 05:53:26;;;;;;;48.03;24.10;;;0.80;99.90;;;;;;5074614;28;20264;-82
2022/12/02 05:55:53;;;;;;;49.30;23.90;;;0.80;99.90;;;;;;5074940;28;20208;-84
2022/12/02 05:58:20;;;;;;;52.67;24.67;;;0.80;99.90;;;;;;5074565;28;20263;-84
2022/12/02 06:00:55;;;;;;;47.27;23.30;;;0.70;99.90;;;;;;5074413;28;20189;-83
2022/12/02 06:03:21;;;;;;;46.33;21.47;;;0.80;99.90;;;;;;5074414;28;20518;-81
2022/12/02 06:05:48;;;;;;;46.13;22.83;;;0.80;99.90;;;;;;5083726;28;20220;-83
2022/12/02 06:08:31;;;;;;;47.67;22.57;;;0.80;99.90;;;;;;5094801;28;20177;-84
2022/12/02 06:11:00;;;;;;;51.50;23.87;;;0.80;99.90;;;;;;5080334;28;20531;-83
2022/12/02 06:13:30;;;;;;;55.17;25.37;;;0.80;99.90;;;;;;5056446;28;20214;-83
2022/12/02 06:15:57;;;;;;;52.03;23.93;;;0.80;99.90;;;;;;5073947;28;20512;-82
2022/12/02 06:18:28;;;;;;;48.30;22.83;;;0.80;99.90;;;;;;5074215;28;20311;-82
2022/12/02 06:21:02;;;;;;;47.97;23.87;;;0.80;99.90;;;;;;5074185;28;20211;-83
2022/12/02 06:23:30;;;;;;;48.43;23.80;;;0.80;99.90;;;;;;5056275;28;20619;-83
2022/12/02 06:25:57;;;;;;;49.83;24.60;;;0.80;99.90;;;;;;5074164;28;20607;-83
2022/12/02 06:28:27;;;;;;;47.40;23.17;;;0.80;99.90;;;;;;5056302;28;20216;-83
2022/12/02 06:31:00;;;;;;;48.67;23.20;;;0.80;99.90;;;;;;5055747;28;20180;-82
2022/12/02 06:33:31;;;;;;;45.47;23.40;;;0.80;99.90;;;;;;5085847;28;20172;-82
2022/12/02 06:36:01;;;;;;;46.23;22.37;;;0.80;99.90;;;;;;5094220;28;20185;-83
2022/12/02 06:38:39;;;;;;;44.83;22.07;;;0.80;99.90;;;;;;5075936;28;20183;-83
2022/12/02 06:41:22;;;;;;;46.30;23.27;;;0.80;99.90;;;;;;5094026;28;20183;-83
2022/12/02 06:46:34;;;;;;;46.17;24.53;;;0.80;99.90;;;;;;5068084;28;20191;-82
2022/12/02 06:49:19;;;;;;;47.17;23.43;;;0.80;99.90;;;;;;5051094;28;20628;-81
2022/12/02 06:51:47;;;;;;;43.80;22.63;;;0.80;99.90;;;;;;5071748;28;20512;-83
2022/12/02 06:54:19;;;;;;;51.80;24.63;;;0.80;99.90;;;;;;5063880;28;20184;-83
2022/12/02 06:56:47;;;;;;;46.53;22.17;;;0.80;99.90;;;;;;5073601;28;20195;-83
2022/12/02 06:59:15;;;;;;;44.43;22.50;;;0.80;99.90;;;;;;5055169;28;20238;-82
2022/12/02 07:01:43;;;;;;;44.20;22.00;;;0.80;99.90;;;;;;5073086;28;20201;-82
2022/12/02 07:04:08;;;;;;;47.70;22.87;;;0.70;99.90;;;;;;5061114;28;20187;-84
2022/12/02 07:06:43;;;;;;;50.73;24.30;;;0.80;99.90;;;;;;5073301;28;20227;-83
2022/12/02 07:09:13;;;;;;;46.37;22.60;;;0.80;99.90;;;;;;5073341;28;20599;-84
2022/12/02 07:11:54;;;;;;;45.23;22.23;;;0.80;99.90;;;;;;5073185;28;20192;-83
2022/12/02 07:14:41;;;;;;;46.47;23.60;;;0.80;99.90;;;;;;5066661;28;20186;-84
2022/12/02 07:17:12;;;;;;;55.63;27.67;;;0.80;99.90;;;;;;5075030;28;20199;-83
2022/12/02 07:19:44;;;;;;;45.07;25.07;;;0.80;99.90;;;;;;5072851;28;20197;-83
2022/12/02 07:22:22;;;;;;;45.67;23.00;;;0.80;99.90;;;;;;5073263;28;20698;-83
2022/12/02 07:25:08;;;;;;;47.60;21.53;;;0.80;99.90;;;;;;5055121;28;20672;-83
2022/12/02 07:27:38;;;;;;;44.33;20.77;;;0.80;99.90;;;;;;5065179;28;20195;-83
2022/12/02 07:30:26;;;;;;;49.37;24.23;;;0.80;99.90;;;;;;5093363;28;20659;-83
2022/12/02 07:32:52;;;;;;;43.00;20.87;;;0.80;99.90;;;;;;5071732;28;20603;-82
2022/12/02 07:35:18;;;;;;;44.77;21.83;;;0.80;99.90;;;;;;5045173;28;20188;-82
2022/12/02 07:37:44;;;;;;;42.73;20.80;;;0.80;99.90;;;;;;5069188;28;20183;-84
2022/12/02 07:40:12;;;;;;;41.90;21.47;;;0.80;99.90;;;;;;5072706;28;20169;-83
2022/12/02 07:42:38;;;;;;;44.83;21.83;;;0.80;99.90;;;;;;5053783;28;20275;-82
2022/12/02 07:45:04;;;;;;;44.23;21.93;;;0.90;99.90;;;;;;5053081;28;20683;-83
2022/12/02 07:47:31;;;;;;;42.10;21.43;;;0.80;99.90;;;;;;5040277;28;20186;-83
2022/12/02 07:49:57;;;;;;;40.70;20.97;;;0.80;99.90;;;;;;5054855;28;20311;-83
2022/12/02 07:52:23;;;;;;;39.10;20.03;;;0.80;99.90;;;;;;5056809;28;20181;-84
2022/12/02 08:05:12;;;;;;;42.43;21.03;;;0.90;99.90;;;;;;5756527;22;20205;31
2022/12/02 08:07:38;;;;;;;39.80;20.00;;;0.90;99.90;;;;;;5027964;28;20228;-88
2022/12/02 08:10:05;;;;;;;40.97;21.10;;;0.90;99.90;;;;;;4997300;28;20187;-86
2022/12/02 08:12:31;;;;;;;42.80;21.57;;;0.90;99.90;;;;;;5015773;28;20179;-85
2022/12/02 08:14:57;;;;;;;45.03;23.40;;;0.80;99.90;;;;;;5014845;28;20190;-88
2022/12/02 08:17:22;;;;;;;46.07;21.77;;;0.90;99.90;;;;;;5015428;28;20180;-88
2022/12/02 08:19:48;;;;;;;37.40;17.40;;;0.90;99.90;;;;;;4999641;28;20243;-86
2022/12/02 08:22:14;;;;;;;43.80;21.50;;;0.90;99.90;;;;;;5026264;28;20233;-88
2022/12/02 08:24:39;;;;;;;44.43;20.10;;;1.00;99.90;;;;;;5018362;28;20190;-88
2022/12/02 08:27:05;;;;;;;43.77;20.73;;;1.00;99.90;;;;;;5033479;28;20182;-89
2022/12/02 08:29:31;;;;;;;41.47;21.67;;;0.90;99.90;;;;;;5034751;28;20185;-90
2022/12/02 08:31:57;;;;;;;40.47;20.93;;;0.90;99.90;;;;;;5030106;28;20648;-82
2022/12/02 08:34:23;;;;;;;38.97;21.67;;;0.90;99.90;;;;;;5000973;28;20171;-84
2022/12/02 08:36:48;;;;;;;37.47;21.27;;;1.00;99.90;;;;;;5018391;28;20184;-87
2022/12/02 08:39:14;;;;;;;41.30;20.07;;;1.00;99.90;;;;;;5018639;28;20183;-88
2022/12/02 08:41:40;;;;;;;40.87;20.73;;;1.00;99.90;;;;;;4998944;28;20222;-84
2022/12/02 08:44:06;;;;;;;39.47;19.93;;;1.00;99.90;;;;;;5014649;28;20551;-84
2022/12/02 08:46:32;;;;;;;38.60;20.43;;;1.00;99.90;;;;;;4998782;28;20191;-88
2022/12/02 08:48:58;;;;;;;42.43;21.40;;;1.00;99.90;;;;;;4998393;28;20171;-85
2022/12/02 08:51:24;;;;;;;41.70;19.97;;;1.00;99.90;;;;;;5015080;28;20176;-84
2022/12/02 08:53:50;;;;;;;45.60;22.10;;;1.00;99.90;;;;;;4998308;28;20186;-88
2022/12/02 08:56:16;;;;;;;44.73;22.13;;;1.00;99.90;;;;;;4998292;28;20746;-88
2022/12/02 08:58:42;;;;;;;38.67;19.90;;;1.00;99.90;;;;;;5015784;28;20256;-88
2022/12/02 09:01:08;;;;;;;42.83;20.40;;;1.00;99.90;;;;;;4998746;28;20303;-89
2022/12/02 09:03:33;;;;;;;41.53;21.30;;;1.00;99.90;;;;;;4999116;28;20669;-86
2022/12/02 09:06:00;;;;;;;37.73;20.10;;;1.10;99.90;;;;;;4997737;28;20237;-89
2022/12/02 09:08:25;;;;;;;41.03;20.80;;;1.10;99.90;;;;;;4998900;28;20637;-88
2022/12/02 09:10:51;;;;;;;42.53;21.13;;;1.10;99.90;;;;;;4998751;28;20221;-85
2022/12/02 09:13:17;;;;;;;41.07;21.63;;;1.10;99.90;;;;;;5015331;28;20238;-87
2022/12/02 09:15:43;;;;;;;52.17;30.30;;;1.10;99.90;;;;;;4998212;28;20178;-88
2022/12/02 09:18:08;;;;;;;38.83;20.17;;;1.10;99.90;;;;;;4998410;28;20183;-86
2022/12/02 09:20:34;;;;;;;43.90;22.20;;;1.10;99.90;;;;;;4998479;28;20180;-85
2022/12/02 09:23:02;;;;;;;38.27;20.57;;;1.10;99.90;;;;;;4998043;28;20190;-88
2022/12/02 09:25:29;;;;;;;36.20;19.27;;;1.20;99.90;;;;;;5015180;28;20193;-87
2022/12/02 09:27:54;;;;;;;36.53;19.60;;;1.20;99.90;;;;;;5032357;28;20178;-87
2022/12/02 09:30:20;;;;;;;39.10;20.57;;;1.20;99.90;;;;;;5001231;28;20548;-90
2022/12/02 09:32:46;;;;;;;40.97;22.30;;;1.30;99.90;;;;;;4979089;28;20593;-89
2022/12/02 09:35:12;;;;;;;39.97;20.47;;;1.20;99.90;;;;;;4979030;28;20688;-89
2022/12/02 09:37:37;;;;;;;34.00;18.90;;;1.20;99.90;;;;;;4982042;28;20191;-89
2022/12/02 09:40:04;;;;;;;33.67;19.27;;;1.30;99.90;;;;;;4998445;28;20605;-86
2022/12/02 09:42:31;;;;;;;34.10;18.27;;;1.30;99.90;;;;;;5014780;28;20217;-88
2022/12/02 09:44:57;;;;;;;36.17;20.40;;;1.30;99.90;;;;;;5027853;28;20179;-88
2022/12/02 09:47:24;;;;;;;33.93;18.93;;;1.30;99.90;;;;;;5026370;28;20198;-90
2022/12/02 09:49:50;;;;;;;36.93;19.33;;;1.30;99.90;;;;;;5023986;28;20268;-87
2022/12/02 09:52:20;;;;;;;36.83;20.60;;;1.30;99.90;;;;;;5023466;28;20250;-91
2022/12/02 09:54:46;;;;;;;35.17;19.03;;;1.30;99.90;;;;;;5029693;28;20166;-91
2022/12/02 09:57:13;;;;;;;31.67;18.43;;;1.40;99.90;;;;;;5024145;28;20201;-89
2022/12/02 09:59:40;;;;;;;34.40;19.60;;;1.40;99.90;;;;;;5025003;28;20177;-89
2022/12/02 10:02:35;;;;;;;34.27;17.83;;;1.30;99.90;;;;;;5034303;28;20222;-91
2022/12/02 10:05:13;;;;;;;35.47;18.00;;;1.40;99.90;;;;;;5034077;28;20177;-90
2022/12/02 10:07:39;;;;;;;35.77;19.23;;;1.40;99.90;;;;;;5029234;28;20199;-89
2022/12/02 10:10:05;;;;;;;35.13;19.37;;;1.30;99.90;;;;;;5000242;28;20192;-88
2022/12/02 10:12:31;;;;;;;34.67;17.70;;;1.40;99.90;;;;;;5032472;28;20175;-88
2022/12/02 10:14:59;;;;;;;35.10;18.90;;;1.40;99.90;;;;;;5014463;28;20196;-92
2022/12/02 10:17:25;;;;;;;35.90;19.17;;;1.30;99.90;;;;;;4997496;28;20175;-89
2022/12/02 10:19:51;;;;;;;32.57;17.57;;;1.40;99.90;;;;;;5013675;28;20652;-88
2022/12/02 10:22:20;;;;;;;33.70;19.00;;;1.40;99.90;;;;;;5014638;28;20756;-87
2022/12/02 10:24:47;;;;;;;36.60;19.27;;;1.40;99.90;;;;;;4997609;28;20209;-89
2022/12/02 10:27:25;;;;;;;34.53;18.87;;;1.40;99.90;;;;;;4997081;28;20318;-88
2022/12/02 10:29:51;;;;;;;29.23;17.57;;;1.40;99.90;;;;;;4977622;28;20595;-89
2022/12/02 10:32:27;;;;;;;30.47;18.43;;;1.40;99.90;;;;;;4993827;28;20201;-86
2022/12/02 10:35:03;;;;;;;34.77;18.13;;;1.40;99.90;;;;;;4997314;28;20174;-89
2022/12/02 10:37:32;;;;;;;34.10;18.13;;;1.40;99.90;;;;;;4996347;28;20178;-90
2022/12/02 10:40:20;;;;;;;35.23;19.13;;;1.40;99.90;;;;;;5016340;28;20179;-87
2022/12/02 10:42:46;;;;;;;32.77;17.77;;;1.40;99.90;;;;;;5028949;28;20207;-85
2022/12/02 10:45:18;;;;;;;32.80;17.90;;;1.40;99.90;;;;;;5003341;28;20646;-90
2022/12/02 10:47:44;;;;;;;30.60;17.50;;;1.40;99.90;;;;;;5029258;28;20593;-85
2022/12/02 10:50:22;;;;;;;29.67;17.50;;;1.40;99.90;;;;;;4998776;28;20191;-91
2022/12/02 10:52:57;;;;;;;32.93;17.97;;;1.40;99.90;;;;;;4979728;28;20249;-88
2022/12/02 10:55:25;;;;;;;31.83;18.83;;;1.50;99.90;;;;;;4997295;28;20506;-89
2022/12/02 10:57:51;;;;;;;31.53;18.33;;;1.50;99.90;;;;;;4995937;28;20207;-88
2022/12/02 11:00:23;;;;;;;33.03;17.70;;;1.50;99.90;;;;;;4996976;28;20175;-88
2022/12/02 11:02:57;;;;;;;30.53;17.17;;;1.50;99.90;;;;;;4995946;28;20586;-87
2022/12/02 11:05:32;;;;;;;32.90;18.37;;;1.50;99.90;;;;;;4996633;28;20174;-87
2022/12/02 11:07:59;;;;;;;28.73;16.07;;;1.60;99.90;;;;;;5013096;28;20183;-89
2022/12/02 11:10:32;;;;;;;28.50;17.27;;;1.50;99.90;;;;;;5019413;28;20186;-88
2022/12/02 11:13:03;;;;;;;29.73;17.50;;;1.60;99.90;;;;;;4996930;28;20175;-88
2022/12/02 11:15:48;;;;;;;29.63;17.27;;;1.60;99.90;;;;;;5012956;28;20508;-87
2022/12/02 11:18:29;;;;;;;26.20;15.63;;;1.60;99.90;;;;;;5016186;28;20639;-86
2022/12/02 11:21:01;;;;;;;29.67;17.30;;;1.50;99.90;;;;;;5020952;28;20209;-88
2022/12/02 11:23:27;;;;;;;28.30;14.93;;;1.50;99.90;;;;;;5034668;28;20185;-84
2022/12/02 11:25:56;;;;;;;27.53;16.20;;;1.60;99.90;;;;;;5024739;28;20172;-88
2022/12/02 11:28:28;;;;;;;27.23;16.27;;;1.50;99.90;;;;;;5026302;28;20273;-88
2022/12/02 11:31:08;;;;;;;31.67;16.97;;;1.50;99.90;;;;;;5032469;28;20221;-87
2022/12/02 11:33:47;;;;;;;29.63;16.10;;;1.50;99.90;;;;;;5029809;28;20237;-87
2022/12/02 11:36:20;;;;;;;30.50;17.17;;;1.40;99.90;;;;;;5025959;28;20167;-89
2022/12/02 11:38:51;;;;;;;31.77;16.87;;;1.40;99.90;;;;;;5027677;28;20265;-89
2022/12/02 11:41:25;;;;;;;28.90;16.30;;;1.40;99.90;;;;;;5006011;28;20199;-89
2022/12/02 11:44:20;;;;;;;30.53;17.73;;;1.40;99.90;;;;;;5025458;28;20171;-91
2022/12/02 11:46:51;;;;;;;28.27;16.10;;;1.50;99.90;;;;;;4984865;28;20325;-91
2022/12/02 11:49:37;;;;;;;33.80;17.17;;;1.40;99.90;;;;;;5029588;28;20171;-88
2022/12/02 11:52:09;;;;;;;30.47;17.67;;;1.40;99.90;;;;;;5029111;28;20258;-90
2022/12/02 11:54:48;;;;;;;32.73;18.17;;;1.40;99.90;;;;;;5016826;28;20653;-87
2022/12/02 11:57:26;;;;;;;33.00;17.93;;;1.40;99.90;;;;;;5020491;28;20170;-86
2022/12/02 11:59:53;;;;;;;38.73;19.80;;;1.40;99.90;;;;;;4996717;28;20187;-90
2022/12/02 12:02:20;;;;;;;38.73;20.97;;;1.40;99.90;;;;;;4990391;28;20259;-89
2022/12/02 12:05:03;;;;;;;38.33;20.53;;;1.40;99.90;;;;;;5035148;28;20565;-90
2022/12/02 12:07:49;;;;;;;32.83;18.47;;;1.40;99.90;;;;;;5036223;28;20233;-89
2022/12/02 12:10:29;;;;;;;37.23;20.23;;;1.40;99.90;;;;;;5037263;28;20225;-91
2022/12/02 12:13:22;;;;;;;45.13;20.93;;;1.40;99.90;;;;;;5036324;28;20186;-91
2022/12/02 12:16:00;;;;;;;40.70;20.07;;;1.50;99.90;;;;;;5019837;28;20206;-89
2022/12/02 12:18:39;;;;;;;34.43;18.63;;;1.40;99.90;;;;;;5033968;28;20639;-89
2022/12/02 12:21:06;;;;;;;32.63;17.87;;;1.40;99.90;;;;;;5029839;28;20651;-88
2022/12/02 12:23:36;;;;;;;36.27;18.60;;;1.50;99.90;;;;;;5015955;28;20183;-90
2022/12/02 12:26:02;;;;;;;36.00;18.00;;;1.40;99.90;;;;;;5015856;28;20273;-90
2022/12/02 12:28:31;;;;;;;38.47;19.13;;;1.40;99.90;;;;;;5015263;28;20180;-89
2022/12/02 12:30:59;;;;;;;36.90;18.20;;;1.40;99.90;;;;;;4998945;28;20179;-88
2022/12/02 12:33:25;;;;;;;34.73;18.03;;;1.40;99.90;;;;;;4999268;28;20236;-89
2022/12/02 12:35:53;;;;;;;38.30;18.27;;;1.40;99.90;;;;;;5003144;28;20273;-89
2022/12/02 12:38:19;;;;;;;33.97;17.67;;;1.40;99.90;;;;;;5017519;28;20186;-89
2022/12/02 12:40:45;;;;;;;33.50;18.03;;;1.50;99.90;;;;;;4999585;28;20185;-89
2022/12/02 12:43:11;;;;;;;35.30;18.60;;;1.50;99.90;;;;;;5016471;28;20174;-88
2022/12/02 12:45:37;;;;;;;36.20;17.20;;;1.50;99.90;;;;;;5016962;28;20171;-89
2022/12/02 12:48:03;;;;;;;34.57;17.93;;;1.60;99.90;;;;;;5016669;28;20500;-89
2022/12/02 12:50:28;;;;;;;33.87;17.67;;;1.60;99.90;;;;;;5002210;28;20278;-90
2022/12/02 12:52:55;;;;;;;34.97;17.23;;;1.60;99.90;;;;;;5017612;28;20610;-91
2022/12/02 12:55:23;;;;;;;32.97;16.63;;;1.50;99.90;;;;;;5016996;28;20190;-88
2022/12/02 12:57:48;;;;;;;31.80;17.43;;;1.60;99.90;;;;;;4999257;28;20214;-86
2022/12/02 13:00:16;;;;;;;32.87;16.27;;;1.60;99.90;;;;;;5024361;28;20268;-92
2022/12/02 13:02:49;;;;;;;30.53;16.93;;;1.60;99.90;;;;;;5035126;28;20233;-91
2022/12/02 13:05:15;;;;;;;29.00;14.70;;;1.60;99.90;;;;;;5034835;28;20174;-90
2022/12/02 13:07:40;;;;;;;29.67;15.60;;;1.60;99.90;;;;;;5035394;28;20261;-92
2022/12/02 13:10:08;;;;;;;33.53;16.60;;;1.60;99.90;;;;;;5035180;28;20194;-90
2022/12/02 13:12:33;;;;;;;31.37;16.17;;;1.50;99.90;;;;;;5036357;28;20246;-90